Time;durP1;ratioP1;P1;durP2;ratioP2;P2;SDS_P1;SDS_P2;PMS_P1;PMS_P2;Temp;Humidity;BMP_temperature;BMP_pressure;BME280_temperature;BME280_humidity;BME280_pressure;Samples;Min_cycle;Max_cycle;Signal;HPM_P1;HPM_P2
2022/11/11 00:01:06;;;;;;;18.45;8.27;;;;;;;9.52;99.24;99566.97;4367240;32;20106;-79
2022/11/11 00:03:33;;;;;;;19.45;7.90;;;;;;;9.17;100.00;99557.16;4366931;32;20155;-78
2022/11/11 00:06:04;;;;;;;18.60;8.43;;;;;;;9.20;99.67;99556.25;4366448;32;20103;-79
2022/11/11 00:08:31;;;;;;;18.00;8.35;;;;;;;9.44;98.64;99550.75;4366541;32;20099;-78
2022/11/11 00:11:09;;;;;;;17.10;7.70;;;;;;;9.51;97.92;99552.37;4365044;32;20105;-79
2022/11/11 00:13:37;;;;;;;21.62;8.45;;;;;;;9.64;96.89;99553.03;4366515;32;20095;-78
2022/11/11 00:16:22;;;;;;;18.02;7.57;;;;;;;9.27;98.62;99563.88;4365714;32;20091;-79
2022/11/11 00:27:14;;;;;;;14.77;7.15;;;;;;;9.11;100.00;99564.94;4367290;32;20126;-78
2022/11/11 00:29:45;;;;;;;16.98;7.68;;;;;;;9.06;99.78;99563.31;4366887;32;20537;-78
2022/11/11 00:32:26;;;;;;;16.00;7.65;;;;;;;9.02;100.00;99562.47;4367602;32;20742;-79
2022/11/11 00:37:42;;;;;;;20.02;8.77;;;;;;;8.77;100.00;99564.50;4366644;32;20110;-79
2022/11/11 00:40:10;;;;;;;15.60;7.70;;;;;;;9.54;96.93;99559.19;4367106;32;20086;-79
2022/11/11 00:42:37;;;;;;;19.33;8.63;;;;;;;9.33;97.82;99562.94;4368603;32;20079;-79
2022/11/11 00:45:04;;;;;;;;;;;;;;;8.80;100.00;99553.31;4368853;32;20091;-79
2022/11/11 00:53:13;;;;;;;18.33;7.12;;;;;;;9.32;96.98;99563.81;4367654;32;20054;-79
2022/11/11 00:55:40;;;;;;;16.98;6.93;;;;;;;9.68;95.78;99569.31;4367347;32;20174;-79
2022/11/11 00:58:07;;;;;;;16.30;7.53;;;;;;;9.27;96.75;99573.34;4368209;32;20064;-79
2022/11/11 01:00:34;;;;;;;17.45;7.22;;;;;;;9.48;95.98;99573.03;4368003;32;20121;-79
2022/11/11 01:03:01;;;;;;;16.73;7.78;;;;;;;9.62;94.78;99574.56;4368106;32;20113;-79
2022/11/11 01:05:28;;;;;;;15.63;7.35;;;;;;;9.52;94.79;99572.09;4367746;32;20107;-78
2022/11/11 01:07:55;;;;;;;;;;;;;;;10.26;90.16;99558.09;4368095;32;20110;-79
2022/11/11 01:10:37;;;;;;;16.35;6.82;;;;;;;10.26;87.48;99558.09;4367404;32;19982;-78
2022/11/11 01:13:13;;;;;;;16.98;7.00;;;;;;;10.31;87.27;99558.84;4367913;32;20534;-78
2022/11/11 01:15:42;;;;;;;16.52;7.25;;;;;;;10.48;86.37;99555.97;4368163;32;20138;-78
2022/11/11 01:18:10;;;;;;;17.62;7.03;;;;;;;10.33;87.21;99564.84;4367531;32;20100;-79
2022/11/11 01:20:38;;;;;;;18.92;7.18;;;;;;;10.18;86.85;99571.06;4366754;32;20837;-78
2022/11/11 01:23:06;;;;;;;15.73;7.53;;;;;;;10.31;85.77;99571.75;4367464;32;20100;-79
2022/11/11 01:25:34;;;;;;;15.60;7.47;;;;;;;9.99;87.28;99573.09;4367593;32;20129;-79
2022/11/11 01:28:02;;;;;;;15.15;7.20;;;;;;;9.53;89.53;99567.81;4367719;32;20145;-78
2022/11/11 01:30:30;;;;;;;17.20;8.02;;;;;;;9.14;92.25;99561.47;4366678;32;20146;-78
2022/11/11 01:32:58;;;;;;;20.58;9.15;;;;;;;9.16;92.42;99562.31;4365644;32;20555;-78
2022/11/11 01:35:25;;;;;;;19.75;8.43;;;;;;;9.21;93.13;99565.66;4365757;32;20095;-78
2022/11/11 01:37:52;;;;;;;;;;;;;;;9.38;92.30;99561.16;4367735;32;20410;-79
2022/11/11 01:40:19;;;;;;;18.50;8.55;;;;;;;9.81;90.46;99560.53;4367062;32;19974;-79
2022/11/11 01:42:51;;;;;;;15.60;8.02;;;;;;;9.29;93.96;99561.28;4367504;32;20075;-78
2022/11/11 01:45:45;;;;;;;20.58;9.45;;;;;;;9.70;92.90;99571.00;4367417;32;20430;-78
2022/11/11 01:51:15;;;;;;;17.85;8.73;;;;;;;9.81;92.95;99563.09;4367200;32;20486;-79
2022/11/11 01:53:43;;;;;;;20.55;8.88;;;;;;;10.15;90.43;99564.25;4365548;32;20101;-78
2022/11/11 01:56:11;;;;;;;24.10;8.82;;;;;;;10.01;90.63;99560.22;4366886;32;20154;-78
2022/11/11 01:58:38;;;;;;;19.80;8.70;;;;;;;9.97;90.44;99558.53;4365750;32;20162;-78
2022/11/11 02:01:05;;;;;;;20.77;8.95;;;;;;;9.75;92.16;99553.72;4366020;32;20079;-79
2022/11/11 02:03:37;;;;;;;20.00;9.00;;;;;;;9.83;91.43;99558.78;4366871;32;20082;-79
2022/11/11 02:06:04;;;;;;;18.48;8.20;;;;;;;9.72;91.76;99552.94;4366765;32;20135;-79
2022/11/11 02:08:33;;;;;;;18.35;8.13;;;;;;;9.48;92.04;99555.00;4366342;32;20145;-79
2022/11/11 02:11:11;;;;;;;20.62;8.80;;;;;;;9.65;90.80;99554.75;4365183;32;20073;-78
2022/11/11 02:16:27;;;;;;;18.95;8.93;;;;;;;9.63;92.05;99561.66;4365338;32;20121;-79
2022/11/11 02:18:54;;;;;;;19.45;8.65;;;;;;;9.78;90.71;99560.56;4365867;32;20103;-79
2022/11/11 02:21:27;;;;;;;16.05;7.43;;;;;;;9.55;91.20;99566.06;4365580;32;20091;-79
2022/11/11 02:24:09;;;;;;;19.92;8.32;;;;;;;9.55;92.82;99561.75;4365277;32;20147;-79
2022/11/11 02:26:37;;;;;;;22.05;8.43;;;;;;;9.80;90.96;99570.00;4366602;32;20096;-78
2022/11/11 02:29:09;;;;;;;16.90;8.15;;;;;;;9.67;89.79;99577.91;4366044;32;20156;-79
2022/11/11 02:31:36;;;;;;;18.67;8.13;;;;;;;9.79;89.57;99570.00;4365525;32;20095;-78
2022/11/11 02:34:03;;;;;;;22.27;8.35;;;;;;;9.76;89.06;99570.88;4365421;32;20149;-79
2022/11/11 02:36:31;;;;;;;19.00;8.45;;;;;;;9.46;89.18;99573.91;4366754;32;20133;-79
2022/11/11 02:38:58;;;;;;;18.70;8.73;;;;;;;9.65;89.40;99571.94;4365718;32;20618;-79
2022/11/11 02:44:10;;;;;;;18.98;9.05;;;;;;;10.11;89.19;99570.34;4365641;32;20429;-78
2022/11/11 02:46:37;;;;;;;20.10;8.15;;;;;;;9.57;91.60;99575.50;4366136;32;20154;-79
2022/11/11 02:49:04;;;;;;;19.80;8.88;;;;;;;9.66;91.33;99581.34;4365830;32;20099;-79
2022/11/11 02:51:31;;;;;;;20.85;9.25;;;;;;;10.04;89.49;99575.63;4365643;32;20143;-78
2022/11/11 02:53:58;;;;;;;;;;;;;;;9.53;91.52;99586.69;4366159;32;20083;-78
2022/11/11 02:59:11;;;;;;;20.33;9.07;;;;;;;9.75;89.65;99591.53;4366034;32;20157;-78
2022/11/11 03:01:38;;;;;;;21.58;8.98;;;;;;;9.36;91.80;99586.09;4364057;32;20078;-79
2022/11/11 03:04:05;;;;;;;19.87;9.45;;;;;;;9.73;90.47;99586.41;4366149;32;20113;-79
2022/11/11 03:06:32;;;;;;;21.87;8.90;;;;;;;9.88;89.37;99587.91;4366218;32;20433;-79
2022/11/11 03:08:59;;;;;;;21.37;9.10;;;;;;;9.95;88.21;99589.50;4366503;32;20091;-78
2022/11/11 03:11:26;;;;;;;20.67;9.55;;;;;;;9.46;89.79;99587.66;4365944;32;20099;-78
2022/11/11 03:13:55;;;;;;;20.67;9.23;;;;;;;9.37;90.45;99594.66;4365787;32;20109;-79
2022/11/11 03:19:09;;;;;;;23.65;10.57;;;;;;;9.24;90.90;99594.81;4365888;32;20091;-78
2022/11/11 03:21:36;;;;;;;23.08;10.63;;;;;;;9.32;91.51;99591.28;4366325;32;20067;-79
2022/11/11 03:24:23;;;;;;;23.40;10.43;;;;;;;9.86;88.14;99605.97;4366319;32;20087;-78
2022/11/11 03:26:50;;;;;;;20.35;9.18;;;;;;;9.59;90.03;99611.53;4365577;32;20142;-78
2022/11/11 03:29:17;;;;;;;21.37;9.88;;;;;;;9.76;91.13;99604.41;4365592;32;20099;-79
2022/11/11 03:31:43;;;;;;;;;;;;;;;9.48;92.41;99606.53;4365544;32;20083;-78
2022/11/11 03:34:19;;;;;;;22.67;9.52;;;;;;;9.35;93.21;99612.69;4365800;32;20567;-78
2022/11/11 03:39:32;;;;;;;21.98;9.90;;;;;;;9.73;92.12;99614.75;4365128;32;20175;-79
2022/11/11 03:41:59;;;;;;;19.80;8.98;;;;;;;9.47;92.70;99615.13;4365472;32;20091;-78
2022/11/11 03:44:27;;;;;;;19.90;9.27;;;;;;;9.49;93.53;99615.13;4365659;32;20149;-79
2022/11/11 03:46:56;;;;;;;17.48;9.52;;;;;;;9.59;91.71;99610.69;4365522;32;20149;-78
2022/11/11 03:49:23;;;;;;;19.73;9.13;;;;;;;9.58;91.54;99617.56;4365174;32;20096;-78
2022/11/11 03:51:50;;;;;;;;;;;;;;;9.47;91.88;99617.72;4365672;32;20087;-78
2022/11/11 03:54:17;;;;;;;19.25;8.55;;;;;;;9.79;89.59;99622.41;4364943;32;19987;-79
2022/11/11 03:56:43;;;;;;;;;;;;;;;9.28;91.57;99616.25;4365667;32;20353;-79
2022/11/11 03:59:10;;;;;;;21.52;9.70;;;;;;;9.55;93.15;99615.84;4365442;32;19997;-79
2022/11/11 04:23:59;;;;;;;18.75;8.30;;;;;;;9.72;90.59;99633.69;4366585;32;20079;-78
2022/11/11 04:26:25;;;;;;;17.00;8.10;;;;;;;9.48;90.67;99631.44;4366360;32;20091;-78
2022/11/11 04:32:34;;;;;;;19.77;8.70;;;;;;;9.85;89.48;99639.50;4366417;32;20320;-79
2022/11/11 04:34:27;;;;;;;16.05;7.95;;;;;;;9.21;93.41;99642.94;4366106;32;20101;-78
2022/11/11 04:36:54;;;;;;;17.95;8.18;;;;;;;9.15;93.39;99637.88;4366257;32;20075;-79
2022/11/11 04:42:06;;;;;;;20.55;8.05;;;;;;;9.84;88.83;99648.13;4365879;32;19978;-78
2022/11/11 04:47:20;;;;;;;15.65;7.28;;;;;;;9.76;91.49;99640.47;4366609;32;20114;-79
2022/11/11 04:49:47;;;;;;;;;;;;;;;9.61;91.21;99650.16;4366362;32;20098;-78
2022/11/11 04:52:25;;;;;;;15.07;6.68;;;;;;;9.81;89.85;99650.75;4366357;32;19983;-78
2022/11/11 04:57:41;;;;;;;14.82;6.80;;;;;;;9.44;91.42;99664.09;4365718;32;20098;-78
2022/11/11 05:00:13;;;;;;;15.90;6.93;;;;;;;9.80;88.74;99664.50;4365535;32;20118;-78
2022/11/11 05:05:25;;;;;;;14.10;6.20;;;;;;;9.39;91.94;99668.47;4365426;32;20149;-78
2022/11/11 05:10:38;;;;;;;14.90;6.80;;;;;;;9.39;91.35;99659.91;4365451;32;20430;-79
2022/11/11 05:21:27;;;;;;;14.23;5.97;;;;;;;9.10;91.64;99668.81;4366061;32;20071;-78
2022/11/11 05:26:39;;;;;;;17.02;5.90;;;;;;;9.81;87.95;99669.66;4366193;32;20130;-79
2022/11/11 05:29:06;;;;;;;;;;;;;;;9.71;87.79;99672.38;4366075;32;20163;-79
2022/11/11 05:31:33;;;;;;;16.70;6.15;;;;;;;9.58;87.21;99671.69;4365755;32;19994;-79
2022/11/11 05:33:59;;;;;;;;;;;;;;;9.70;86.63;99683.56;4366331;32;20147;-78
2022/11/11 05:36:26;;;;;;;13.15;5.75;;;;;;;9.50;86.62;99668.34;4366195;32;19981;-79
2022/11/11 05:38:53;;;;;;;12.50;5.72;;;;;;;9.48;86.55;99670.94;4365618;32;20472;-78
2022/11/11 05:41:20;;;;;;;14.73;6.00;;;;;;;9.27;88.13;99677.22;4365865;32;20121;-79
2022/11/11 05:43:47;;;;;;;;;;;;;;;9.39;88.39;99673.63;4367183;32;20067;-80
2022/11/11 05:46:14;;;;;;;15.40;5.53;;;;;;;8.88;92.32;99681.06;4370599;32;19961;-79
2022/11/11 05:49:13;;;;;;;;;;;;;;;9.50;88.11;99676.06;4371014;32;20086;-78
2022/11/11 05:51:27;;;;;;;33.85;15.77;;;;;;;9.17;89.91;99673.03;4366118;32;19978;-79
2022/11/11 05:53:54;;;;;;;;;;;;;;;9.36;88.16;99676.25;4366567;32;20450;-80
2022/11/11 05:56:21;;;;;;;21.27;9.43;;;;;;;8.74;92.16;99677.78;4365409;32;20450;-81
2022/11/11 05:58:48;;;;;;;;;;;;;;;9.07;89.68;99679.16;4365715;32;20083;-81
2022/11/11 06:01:17;;;;;;;20.65;8.85;;;;;;;9.63;87.10;99690.50;4364878;32;20379;-81
2022/11/11 06:03:44;;;;;;;18.60;8.85;;;;;;;9.73;86.75;99683.50;4364340;32;20125;-81
2022/11/11 06:06:11;;;;;;;;;;;;;;;9.70;86.70;99686.13;4365393;32;20106;-81
2022/11/11 06:08:38;;;;;;;18.02;6.35;;;;;;;9.83;84.90;99688.50;4364224;32;19981;-81
2022/11/11 06:11:04;;;;;;;15.80;7.37;;;;;;;9.86;85.23;99695.34;4365438;32;20113;-81
2022/11/11 06:13:31;;;;;;;17.17;7.28;;;;;;;9.57;86.06;99688.03;4365087;32;20461;-81
2022/11/11 06:15:59;;;;;;;14.13;6.75;;;;;;;9.51;86.14;99695.81;4365185;32;20438;-81
2022/11/11 06:18:26;;;;;;;15.98;6.85;;;;;;;9.80;85.00;99692.88;4365201;32;20153;-81
2022/11/11 06:20:58;;;;;;;14.30;6.78;;;;;;;9.45;86.18;99691.56;4365178;32;20107;-81
2022/11/11 06:23:26;;;;;;;15.25;7.18;;;;;;;9.31;88.09;99692.62;4365671;32;20091;-81
2022/11/11 06:26:12;;;;;;;17.37;7.85;;;;;;;9.36;88.60;99702.00;4365296;32;20441;-81
2022/11/11 06:28:52;;;;;;;15.88;7.82;;;;;;;9.48;88.22;99707.03;4365005;32;20075;-81
2022/11/11 06:31:22;;;;;;;15.70;7.55;;;;;;;9.73;88.16;99711.84;4365631;32;20117;-81
2022/11/11 06:33:49;;;;;;;16.62;7.47;;;;;;;10.29;85.76;99705.06;4365700;32;20099;-81
2022/11/11 06:36:18;;;;;;;16.85;6.50;;;;;;;10.85;83.90;99709.34;4364620;32;20083;-82
2022/11/11 06:38:45;;;;;;;12.68;6.45;;;;;;;11.36;80.96;99711.81;4364465;32;20082;-81
2022/11/11 06:41:13;;;;;;;11.25;5.32;;;;;;;11.83;79.63;99710.06;4364953;32;20106;-82
2022/11/11 06:43:40;;;;;;;12.00;5.05;;;;;;;12.51;76.61;99701.59;4365572;32;20095;-81
2022/11/11 06:46:22;;;;;;;11.35;5.03;;;;;;;13.35;73.47;99718.44;4366260;32;20138;-81
2022/11/11 06:48:49;;;;;;;13.00;5.18;;;;;;;13.96;70.21;99711.50;4365380;32;20109;-81
2022/11/11 06:51:16;;;;;;;11.88;4.55;;;;;;;14.75;67.30;99721.97;4366561;32;20071;-82
2022/11/11 06:53:43;;;;;;;11.88;4.60;;;;;;;14.96;65.51;99724.75;4366409;32;20095;-81
2022/11/11 06:56:13;;;;;;;13.93;4.90;;;;;;;15.15;64.44;99733.63;4364371;32;20087;-81
2022/11/11 06:58:40;;;;;;;14.25;6.28;;;;;;;15.44;63.80;99740.41;4364519;32;20079;-81
2022/11/11 07:01:08;;;;;;;14.02;6.80;;;;;;;15.83;62.19;99752.91;4364426;32;20118;-82
2022/11/11 07:03:35;;;;;;;16.08;7.15;;;;;;;15.78;62.16;99740.06;4364321;32;20091;-82
2022/11/11 07:06:05;;;;;;;16.50;7.70;;;;;;;16.74;59.56;99738.94;4364043;32;20148;-81
2022/11/11 07:08:32;;;;;;;14.57;5.60;;;;;;;17.04;57.76;99735.97;4365182;32;20091;-81
2022/11/11 07:10:59;;;;;;;11.20;4.65;;;;;;;17.41;56.97;99737.81;4367521;32;20098;-82
2022/11/11 07:13:36;;;;;;;13.00;4.53;;;;;;;17.36;56.59;99731.97;4376673;32;20099;-83
2022/11/11 07:16:04;;;;;;;10.68;4.35;;;;;;;17.12;57.69;99740.84;4372882;32;20214;-82
2022/11/11 07:18:30;;;;;;;12.02;3.90;;;;;;;17.42;56.97;99746.50;4366421;32;20627;-81
2022/11/11 07:20:57;;;;;;;9.07;3.60;;;;;;;17.26;57.52;99741.13;4372611;32;20095;-83
2022/11/11 07:23:24;;;;;;;8.80;3.65;;;;;;;17.58;56.62;99742.31;4378380;32;20067;-83
2022/11/11 07:25:51;;;;;;;8.55;3.37;;;;;;;17.45;57.47;99751.59;4376707;32;20064;-83
2022/11/11 07:28:18;;;;;;;10.63;3.17;;;;;;;17.18;58.09;99748.41;4367392;32;20075;-81
2022/11/11 07:30:45;;;;;;;10.57;3.30;;;;;;;17.40;56.95;99759.63;4364498;32;20103;-86
2022/11/11 07:33:12;;;;;;;9.57;3.22;;;;;;;17.35;57.31;99759.84;4363359;32;20111;-80
2022/11/11 07:35:39;;;;;;;10.57;3.67;;;;;;;17.24;57.41;99767.28;4367696;32;20426;-80
2022/11/11 07:38:05;;;;;;;9.50;3.35;;;;;;;17.15;59.20;99766.81;4364038;32;20102;-80
2022/11/11 07:40:32;;;;;;;9.40;3.40;;;;;;;17.36;58.84;99778.94;4364081;32;20113;-80
2022/11/11 07:42:59;;;;;;;9.85;3.50;;;;;;;17.53;57.58;99789.47;4364512;32;20161;-80
2022/11/11 07:45:26;;;;;;;9.43;3.62;;;;;;;18.30;56.97;99784.31;4363965;32;20091;-79
2022/11/11 07:47:53;;;;;;;10.85;3.12;;;;;;;18.50;55.66;99789.44;4364944;32;20082;-79
2022/11/11 07:50:20;;;;;;;8.02;2.87;;;;;;;18.81;54.37;99800.22;4365973;32;20122;-80
2022/11/11 07:52:48;;;;;;;7.93;2.87;;;;;;;19.59;52.33;99802.41;4365906;32;20095;-79
2022/11/11 07:55:15;;;;;;;7.55;3.17;;;;;;;20.87;49.15;99805.06;4366005;32;20401;-79
2022/11/11 07:57:42;;;;;;;8.82;3.20;;;;;;;21.05;47.67;99810.13;4366063;32;20086;-79
2022/11/11 08:00:09;;;;;;;8.98;3.20;;;;;;;21.46;47.36;99804.22;4365610;32;20126;-80
2022/11/11 08:02:36;;;;;;;7.25;3.00;;;;;;;20.70;47.51;99801.63;4366200;32;20090;-80
2022/11/11 08:05:03;;;;;;;6.40;2.62;;;;;;;20.27;48.71;99805.75;4365872;32;20084;-80
2022/11/11 08:07:33;;;;;;;7.72;2.53;;;;;;;20.11;47.87;99808.38;4365791;32;20087;-80
2022/11/11 08:10:00;;;;;;;8.52;2.72;;;;;;;20.13;48.32;99810.91;4365838;32;20460;-80
2022/11/11 08:15:12;;;;;;;8.88;2.70;;;;;;;20.48;48.19;99807.22;4366026;32;20091;-80
2022/11/11 08:17:39;;;;;;;7.80;2.42;;;;;;;20.22;47.07;99810.41;4365913;32;20166;-80
2022/11/11 08:20:08;;;;;;;9.05;2.50;;;;;;;20.21;47.54;99809.56;4365998;32;20700;-81
2022/11/11 08:22:39;;;;;;;6.32;2.62;;;;;;;19.97;48.66;99812.63;4366012;32;20441;-80
2022/11/11 08:25:08;;;;;;;8.63;2.58;;;;;;;19.55;49.80;99812.19;4365877;32;20106;-82
2022/11/11 08:27:36;;;;;;;8.77;2.53;;;;;;;19.57;50.42;99806.88;4365606;32;20101;-83
2022/11/11 08:30:05;;;;;;;9.05;3.03;;;;;;;19.53;49.86;99802.69;4365596;32;20476;-83
2022/11/11 08:32:31;;;;;;;9.50;2.65;;;;;;;19.57;50.36;99801.66;4365981;32;20095;-81
2022/11/11 08:34:58;;;;;;;5.62;2.65;;;;;;;19.49;50.37;99804.63;4365463;32;20105;-81
2022/11/11 08:37:25;;;;;;;7.82;2.83;;;;;;;19.75;51.30;99805.06;4365733;32;20083;-81
2022/11/11 08:39:52;;;;;;;9.07;2.83;;;;;;;20.37;49.32;99803.47;4364818;32;20106;-82
2022/11/11 08:42:19;;;;;;;8.73;2.53;;;;;;;20.17;47.76;99802.78;4365715;32;20138;-82
2022/11/11 08:44:46;;;;;;;4.32;1.90;;;;;;;20.18;48.16;99801.00;4365851;32;20362;-83
2022/11/11 08:47:13;;;;;;;7.68;2.35;;;;;;;20.53;47.29;99803.50;4365921;32;20468;-82
2022/11/11 08:49:41;;;;;;;10.57;3.15;;;;;;;20.58;45.86;99796.22;4367535;32;20071;-84
2022/11/11 08:52:08;;;;;;;10.20;2.40;;;;;;;20.44;47.10;99803.09;4368248;32;20134;-83
2022/11/11 08:54:35;;;;;;;7.28;1.90;;;;;;;21.02;44.22;99809.44;4368964;32;20083;-84
2022/11/11 08:57:02;;;;;;;6.05;2.00;;;;;;;21.00;45.76;99806.06;4366339;32;20102;-83
2022/11/11 08:59:29;;;;;;;7.10;2.12;;;;;;;21.45;42.90;99804.31;4364840;32;20099;-81
2022/11/11 09:01:55;;;;;;;5.40;1.90;;;;;;;21.30;43.11;99801.69;4372503;32;20060;-83
2022/11/11 09:04:22;;;;;;;7.78;1.95;;;;;;;20.56;44.55;99806.81;4377146;32;20154;-83
2022/11/11 09:07:10;;;;;;;8.93;2.10;;;;;;;20.71;44.29;99808.56;4376145;32;20063;-83
2022/11/11 09:09:37;;;;;;;3.65;1.73;;;;;;;21.12;42.84;99809.75;4369607;32;20099;-82
2022/11/11 09:12:04;;;;;;;6.45;1.98;;;;;;;20.73;43.76;99805.84;4373696;32;20106;-84
2022/11/11 09:14:31;;;;;;;6.25;1.80;;;;;;;20.75;43.74;99810.09;4374544;32;20087;-83
2022/11/11 09:16:58;;;;;;;9.00;2.00;;;;;;;19.88;46.01;99808.72;4376725;32;20059;-83
2022/11/11 09:19:26;;;;;;;8.27;2.10;;;;;;;20.61;44.89;99814.41;4374566;32;20125;-84
2022/11/11 09:21:53;;;;;;;7.90;2.55;;;;;;;20.59;44.73;99814.50;4378170;32;20066;-83
2022/11/11 09:24:20;;;;;;;4.80;1.90;;;;;;;20.74;44.17;99816.25;4851969;27;20074;-83
2022/11/11 09:26:49;;;;;;;6.03;2.08;;;;;;;20.63;44.02;99818.66;4784870;27;20045;-82
2022/11/11 09:29:17;;;;;;;8.65;2.42;;;;;;;20.64;45.14;99828.22;4519336;27;20084;-84
2022/11/11 09:31:45;;;;;;;7.22;2.40;;;;;;;21.00;43.74;99822.62;4404591;32;20140;-83
2022/11/11 09:34:13;;;;;;;3.58;1.60;;;;;;;21.01;43.98;99834.81;4515211;27;20057;-83
2022/11/11 09:36:41;;;;;;;12.90;4.45;;;;;;;20.83;43.63;99827.16;4412996;32;20062;-83
2022/11/11 09:39:24;;;;;;;9.07;2.97;;;;;;;21.15;42.14;99801.69;4439400;32;20216;-84
2022/11/11 09:42:07;;;;;;;5.62;2.03;;;;;;;21.20;42.23;99823.28;4439353;32;20078;-84
2022/11/11 09:44:39;;;;;;;7.47;2.00;;;;;;;20.32;44.12;99814.22;4425803;32;20061;-83
2022/11/11 09:47:25;;;;;;;7.40;2.03;;;;;;;20.83;42.17;99816.66;4439537;32;20078;-84
2022/11/11 09:50:14;;;;;;;8.80;1.95;;;;;;;21.17;41.60;99815.59;4439011;32;20085;-84
2022/11/11 09:52:49;;;;;;;8.45;2.35;;;;;;;20.91;42.67;99810.03;4426721;32;20088;-83
2022/11/11 09:55:38;;;;;;;6.80;1.90;;;;;;;20.47;44.45;99813.41;4420936;32;20103;-82
2022/11/11 09:58:16;;;;;;;7.22;1.77;;;;;;;21.01;42.11;99808.59;4426877;32;20109;-83
2022/11/11 10:00:57;;;;;;;5.93;1.70;;;;;;;20.90;42.86;99803.09;4426846;32;20074;-84
2022/11/11 10:03:25;;;;;;;5.00;1.98;;;;;;;21.62;40.71;99789.25;4442462;27;20109;-83
2022/11/11 10:06:01;;;;;;;5.18;1.60;;;;;;;21.46;41.43;99790.25;4436211;32;20145;-83
2022/11/11 10:08:32;;;;;;;4.35;1.58;;;;;;;21.29;41.21;99789.50;4438111;32;20082;-83
2022/11/11 10:10:59;;;;;;;3.75;1.60;;;;;;;20.71;41.10;99784.09;4436070;32;20101;-83
2022/11/11 10:13:29;;;;;;;4.25;1.30;;;;;;;20.71;41.67;99802.47;4421874;32;20110;-83
2022/11/11 10:16:04;;;;;;;6.28;1.50;;;;;;;20.56;42.17;99803.34;4433032;32;20124;-82
2022/11/11 10:18:57;;;;;;;4.75;1.70;;;;;;;20.96;41.75;99801.94;4424002;32;20066;-82
2022/11/11 10:21:51;;;;;;;5.05;1.73;;;;;;;20.56;42.47;99798.09;4436381;32;20054;-82
2022/11/11 10:24:41;;;;;;;5.60;1.70;;;;;;;20.84;41.69;99785.13;4436234;32;20101;-83
2022/11/11 10:27:21;;;;;;;5.40;1.62;;;;;;;21.17;40.67;99773.59;4419667;32;20077;-83
2022/11/11 10:29:49;;;;;;;5.70;1.60;;;;;;;20.95;42.05;99763.50;4425552;32;20086;-82
2022/11/11 10:32:19;;;;;;;5.97;1.67;;;;;;;20.65;42.00;99764.31;4425775;32;20489;-82
2022/11/11 10:34:46;;;;;;;6.22;1.70;;;;;;;20.37;41.80;99774.63;4417440;32;20081;-82
2022/11/11 10:37:19;;;;;;;5.55;1.85;;;;;;;20.17;41.93;99765.25;4437324;32;20106;-82
2022/11/11 10:40:11;;;;;;;5.20;1.75;;;;;;;19.19;45.33;99765.16;4423901;32;20053;-81
2022/11/11 10:42:38;;;;;;;7.57;1.90;;;;;;;19.59;43.98;99763.13;4423448;32;20094;-82
2022/11/11 10:45:34;;;;;;;5.07;1.60;;;;;;;19.00;44.80;99761.78;4437396;32;20098;-82
2022/11/11 10:48:08;;;;;;;7.68;1.90;;;;;;;17.85;47.36;99764.59;4424595;32;20085;-82
2022/11/11 10:51:02;;;;;;;6.50;1.73;;;;;;;17.59;48.88;99765.72;4438236;32;20062;-81
2022/11/11 10:53:32;;;;;;;6.57;2.00;;;;;;;17.95;49.55;99770.25;4419270;32;20066;-82
2022/11/11 10:56:03;;;;;;;5.68;1.65;;;;;;;18.45;48.58;99767.91;4435791;32;20785;-82
2022/11/11 10:58:34;;;;;;;5.20;1.50;;;;;;;18.21;49.94;99769.91;4435773;32;20057;-82
2022/11/11 11:01:02;;;;;;;5.28;1.60;;;;;;;18.55;49.31;99763.06;4420791;32;20073;-82
2022/11/11 11:03:48;;;;;;;3.92;1.40;;;;;;;18.72;47.43;99770.16;4420000;32;20081;-82
2022/11/11 11:06:23;;;;;;;8.38;2.70;;;;;;;18.96;47.04;99765.47;4420677;32;20120;-82
2022/11/11 11:09:05;;;;;;;10.70;3.22;;;;;;;19.61;47.91;99766.53;4439156;32;20054;-82
2022/11/11 11:11:39;;;;;;;6.90;2.70;;;;;;;19.42;48.14;99765.75;4426414;32;20084;-82
2022/11/11 11:14:15;;;;;;;8.77;2.62;;;;;;;19.48;48.13;99761.06;4439683;32;20066;-82
2022/11/11 11:16:49;;;;;;;7.65;2.50;;;;;;;18.99;49.06;99758.31;4439330;32;20114;-82
2022/11/11 11:22:07;;;;;;;9.00;2.90;;;;;;;18.65;50.62;99755.66;4406169;32;20150;-82
2022/11/11 11:24:38;;;;;;;9.07;3.03;;;;;;;19.05;49.20;99759.78;4407206;32;20066;-82
2022/11/11 11:27:09;;;;;;;8.57;3.00;;;;;;;19.19;48.96;99770.38;4395361;32;20070;-82
2022/11/11 11:29:41;;;;;;;6.15;2.60;;;;;;;18.95;50.24;99761.16;4406189;32;20062;-82
2022/11/11 11:32:22;;;;;;;7.57;2.67;;;;;;;18.82;50.99;99760.94;4394587;32;20059;-82
2022/11/11 11:34:51;;;;;;;8.73;2.80;;;;;;;18.66;50.07;99760.81;4404749;32;20071;-83
2022/11/11 11:37:20;;;;;;;5.90;1.95;;;;;;;18.30;51.65;99762.56;4402257;32;20050;-82
2022/11/11 11:40:00;;;;;;;9.25;2.12;;;;;;;18.67;49.49;99751.22;4402837;32;20073;-82
2022/11/11 11:42:36;;;;;;;5.50;2.05;;;;;;;18.87;48.43;99747.63;4398199;32;147291;-82
2022/11/11 11:45:28;;;;;;;5.85;1.77;;;;;;;18.55;48.73;99747.41;4400048;32;20094;-82
2022/11/11 11:48:26;;;;;;;7.18;1.95;;;;;;;18.54;49.21;99756.16;4402542;32;20093;-82
2022/11/11 11:51:30;;;;;;;4.97;2.00;;;;;;;18.63;48.40;99744.41;4397555;32;20138;-81
2022/11/11 11:54:26;;;;;;;5.78;1.90;;;;;;;18.66;50.45;99746.91;4390097;32;20079;-80
2022/11/11 11:56:56;;;;;;;7.90;1.90;;;;;;;18.79;49.16;99748.00;4364933;32;20094;-80
2022/11/11 11:59:27;;;;;;;6.82;2.42;;;;;;;18.45;49.58;99740.91;4394173;32;20133;-80
2022/11/11 12:02:19;;;;;;;7.97;2.40;;;;;;;18.24;52.57;99739.31;4380287;32;20101;-79
2022/11/11 12:05:24;;;;;;;7.53;2.55;;;;;;;18.51;49.96;99735.41;4393666;32;20109;-80
2022/11/11 12:08:35;;;;;;;6.03;2.22;;;;;;;18.18;50.46;99733.47;4401668;32;20070;-81
2022/11/11 12:11:31;;;;;;;8.45;2.40;;;;;;;18.10;51.10;99729.53;4366501;27;20070;-84
2022/11/11 12:14:20;;;;;;;9.63;2.10;;;;;;;17.80;51.97;99727.41;4382508;32;20078;-82
2022/11/11 12:16:53;;;;;;;5.65;1.95;;;;;;;17.64;53.32;99728.97;4385858;32;20075;-81
2022/11/11 12:19:32;;;;;;;5.30;1.80;;;;;;;17.30;52.70;99709.59;4374305;32;20079;-83
2022/11/11 12:22:27;;;;;;;4.20;1.77;;;;;;;17.39;52.29;99710.13;4386790;32;20078;-82
2022/11/11 12:25:02;;;;;;;7.37;2.00;;;;;;;17.37;51.99;99701.50;4387143;32;20082;-82
2022/11/11 12:27:48;;;;;;;3.40;1.60;;;;;;;17.70;50.71;99700.03;4388633;32;20060;-83
2022/11/11 12:30:20;;;;;;;3.90;1.50;;;;;;;17.52;49.40;99687.78;4390872;32;20084;-83
2022/11/11 12:33:12;;;;;;;3.62;1.50;;;;;;;17.13;50.66;99690.41;4369951;32;20098;-82
2022/11/11 12:36:00;;;;;;;4.68;1.80;;;;;;;17.06;51.35;99700.25;4369289;32;20062;-82
2022/11/11 12:39:09;;;;;;;5.75;1.90;;;;;;;16.90;52.09;99702.63;4422525;27;20058;-81
2022/11/11 12:41:49;;;;;;;13.32;2.10;;;;;;;16.93;52.83;99719.94;4500785;27;20071;31
2022/11/11 12:44:17;;;;;;;6.45;1.90;;;;;;;17.31;52.10;99713.91;4563792;27;20041;-81
2022/11/11 12:47:17;;;;;;;3.03;1.50;;;;;;;16.69;53.02;99719.16;4532285;27;20066;-80
2022/11/11 12:49:56;;;;;;;4.78;1.80;;;;;;;16.55;53.67;99724.91;4393237;32;20079;-82
2022/11/11 12:52:33;;;;;;;5.68;2.05;;;;;;;16.61;53.79;99731.66;4375036;32;20107;-82
2022/11/11 12:55:06;;;;;;;6.68;1.92;;;;;;;16.55;54.58;99731.91;4375683;32;20158;-82
2022/11/11 12:57:54;;;;;;;3.58;1.80;;;;;;;16.48;55.06;99724.34;4375966;32;20055;-81
2022/11/11 13:00:29;;;;;;;5.87;2.15;;;;;;;17.01;55.92;99731.75;4372493;32;20087;-81
2022/11/11 13:03:22;;;;;;;5.15;2.30;;;;;;;17.32;53.24;99728.63;4377463;32;20071;-81
2022/11/11 13:06:09;;;;;;;5.57;1.90;;;;;;;17.08;53.61;99734.06;4985056;27;20049;-80
2022/11/11 13:08:46;;;;;;;6.07;2.30;;;;;;;16.89;54.11;99734.00;4640523;27;20090;-80
2022/11/11 13:12:03;;;;;;;5.68;2.35;;;;;;;16.79;55.03;99738.72;4446181;27;20085;-81
2022/11/11 13:14:36;;;;;;;6.68;2.35;;;;;;;16.63;55.00;99735.03;4483058;27;20062;-82
2022/11/11 13:17:09;;;;;;;6.95;2.60;;;;;;;16.32;56.12;99744.09;4423653;32;20092;-82
2022/11/11 13:22:21;;;;;;;10.23;2.65;;;;;;;16.36;56.84;99724.81;4428061;27;20094;-80
2022/11/11 13:24:49;;;;;;;7.05;2.65;;;;;;;16.34;57.37;99738.81;4683074;27;20065;-80
2022/11/11 13:27:25;;;;;;;7.40;2.67;;;;;;;15.94;59.18;99732.53;4477563;27;20073;-79
2022/11/11 13:33:14;;;;;;;8.07;2.60;;;;;;;16.28;58.28;99752.94;4490658;27;20106;31
2022/11/11 13:35:58;;;;;;;7.43;2.90;;;;;;;16.53;57.64;99752.81;4470570;27;20082;-79